| time (UTC) | temp C | wind direction | speed KPH | gust KPH | rain 1hr cm | rain 24hr cm | rain mn cm | humidity % | barometer mb |
| 20260506104543 | 8 | 0 | 0.0 | 0.0 | 0.00 | 0.00 | 0.00 | 96 | 1018.9 |
| 20260506104027 | 8 | 32 | 0.0 | 0.0 | 0.00 | 0.00 | 0.00 | 98 | 1019.3 |
| 20260506103045 | 8 | 0 | 0.0 | 0.0 | 0.00 | 0.00 | 0.00 | 97 | 1018.7 |
| 20260506103032 | 8 | 32 | 0.0 | 0.0 | 0.00 | 0.00 | 0.00 | 98 | 1019.2 |
| 20260506102016 | 8 | 32 | 0.0 | 0.0 | 0.00 | 0.00 | 0.00 | 98 | 1019.1 |
| 20260506101548 | 8 | 0 | 0.0 | 0.0 | 0.00 | 0.00 | 0.00 | 96 | 1018.7 |
| 20260506101022 | 8 | 32 | 0.0 | 0.0 | 0.00 | 0.00 | 0.00 | 98 | 1019.1 |
| 20260506100045 | 8 | 0 | 0.0 | 0.0 | 0.00 | 0.00 | 0.00 | 96 | 1018.5 |
| 20260506100036 | 8 | 32 | 0.0 | 0.0 | 0.00 | 0.00 | 0.00 | 98 | 1019.1 |
| 20260506095031 | 8 | 32 | 0.0 | 0.0 | 0.00 | 0.00 | 0.00 | 98 | 1019.0 |
| 20260506094540 | 8 | 0 | 0.0 | 0.0 | 0.00 | 0.00 | 0.00 | 96 | 1018.5 |
| 20260506094039 | 8 | 32 | 0.0 | 0.0 | 0.00 | 0.00 | 0.00 | 98 | 1019.1 |
| 20260506093043 | 8 | 0 | 0.0 | 0.0 | 0.00 | 0.00 | 0.00 | 96 | 1018.5 |
| 20260506093016 | 8 | 32 | 0.0 | 0.0 | 0.00 | 0.00 | 0.00 | 98 | 1019.1 |
| 20260506092020 | 8 | 32 | 0.0 | 0.0 | 0.00 | 0.00 | 0.00 | 98 | 1019.1 |
| 20260506091538 | 8 | 0 | 0.0 | 0.0 | 0.00 | 0.00 | 0.00 | 96 | 1018.6 |
| 20260506091029 | 8 | 32 | 0.0 | 0.0 | 0.00 | 0.00 | 0.00 | 98 | 1019.1 |
| 20260506090047 | 8 | 32 | 0.0 | 0.0 | 0.00 | 0.00 | 0.00 | 98 | 1019.0 |
| 20260506090045 | 8 | 0 | 0.0 | 0.0 | 0.00 | 0.00 | 0.00 | 96 | 1018.4 |
| 20260506085016 | 8 | 32 | 0.0 | 0.0 | 0.00 | 0.00 | 0.00 | 98 | 1019.0 |
| 20260506084554 | 8 | 0 | 0.0 | 0.0 | 0.00 | 0.00 | 0.00 | 96 | 1018.6 |
| 20260506084025 | 8 | 32 | 0.0 | 0.0 | 0.00 | 0.00 | 0.00 | 98 | 1019.1 |
| 20260506083040 | 8 | 0 | 0.0 | 0.0 | 0.00 | 0.00 | 0.00 | 96 | 1018.6 |
| 20260506083031 | 8 | 32 | 0.0 | 0.0 | 0.00 | 0.00 | 0.00 | 98 | 1019.1 |
| 20260506082019 | 8 | 32 | 0.0 | 0.0 | 0.00 | 0.00 | 0.00 | 98 | 1019.1 |
| 20260506081546 | 8 | 0 | 0.0 | 0.0 | 0.00 | 0.00 | 0.00 | 96 | 1018.6 |
| 20260506081031 | 8 | 14 | 0.0 | 0.0 | 0.00 | 0.00 | 0.00 | 98 | 1019.1 |
| 20260506080105 | 8 | 14 | 0.0 | 0.0 | 0.00 | 0.00 | 0.00 | 98 | 1019.2 |
| 20260506073046 | 8 | 0 | 0.0 | 0.0 | 0.00 | 0.00 | 0.00 | 96 | 1018.2 |
| 20260506073039 | 8 | 14 | 0.0 | 0.0 | 0.00 | 0.00 | 0.00 | 97 | 1018.9 |
| 20260506072020 | 8 | 14 | 0.0 | 0.0 | 0.00 | 0.00 | 0.00 | 97 | 1018.7 |
| 20260506071541 | 8 | 0 | 0.0 | 0.0 | 0.00 | 0.00 | 0.00 | 96 | 1018.2 |
| 20260506071027 | 8 | 14 | 0.0 | 0.0 | 0.00 | 0.00 | 0.00 | 97 | 1018.7 |
| 20260506070223 | 8 | 14 | 0.0 | 0.0 | 0.00 | 0.00 | 0.00 | 97 | 1018.6 |
| 20260506062040 | 8 | 14 | 0.0 | 0.0 | 0.00 | 0.00 | 0.00 | 97 | 1018.4 |
| 20260506061537 | 8 | 0 | 0.0 | 0.0 | 0.00 | 0.00 | 0.00 | 96 | 1017.9 |
| 20260506061021 | 8 | 14 | 0.0 | 0.0 | 0.00 | 0.00 | 0.00 | 97 | 1018.2 |
| 20260506051033 | 9 | 14 | 0.0 | 3.2 | 0.00 | 0.00 | 0.00 | 97 | 1018.2 |
| 20260506045014 | 9 | 14 | 0.0 | 0.0 | 0.00 | 0.00 | 0.00 | 97 | 1018.0 |
| 20260506044618 | 8 | 0 | 0.0 | 0.0 | 0.00 | 0.00 | 0.00 | 95 | 1017.5 |
| 20260506044042 | 9 | 14 | 0.0 | 0.0 | 0.00 | 0.00 | 0.00 | 97 | 1017.8 |
| 20260506043040 | 8 | 14 | 0.0 | 0.0 | 0.00 | 0.00 | 0.00 | 95 | 1017.5 |
| 20260506043026 | 9 | 14 | 0.0 | 3.2 | 0.00 | 0.00 | 0.00 | 97 | 1017.8 |
| 20260506042030 | 9 | 14 | 0.0 | 0.0 | 0.00 | 0.00 | 0.00 | 97 | 1017.5 |
| 20260506041538 | 8 | 0 | 0.0 | 0.0 | 0.00 | 0.00 | 0.00 | 95 | 1017.2 |
| 20260506041017 | 9 | 14 | 0.0 | 0.0 | 0.00 | 0.00 | 0.00 | 96 | 1017.3 |
| 20260506040053 | 9 | 14 | 1.6 | 4.8 | 0.00 | 0.03 | 0.00 | 97 | 1017.1 |
| 20260506040039 | 9 | 0 | 0.0 | 4.8 | 0.00 | 0.00 | 0.00 | 95 | 1016.8 |
| 20260506035022 | 9 | 14 | 0.0 | 0.0 | 0.00 | 0.03 | 0.00 | 96 | 1017.1 |
| 20260506034602 | 9 | 0 | 0.0 | 0.0 | 0.00 | 0.03 | 0.00 | 95 | 1016.7 |
| 20260506034033 | 9 | 14 | 0.0 | 0.0 | 0.00 | 0.03 | 0.00 | 96 | 1016.9 |
| 20260506033037 | 9 | 0 | 0.0 | 0.0 | 0.00 | 0.03 | 0.00 | 95 | 1016.5 |
| 20260506033017 | 9 | 14 | 0.0 | 0.0 | 0.00 | 0.03 | 0.00 | 96 | 1016.8 |
| 20260506032044 | 9 | 14 | 0.0 | 3.2 | 0.00 | 0.03 | 0.00 | 96 | 1016.8 |
| 20260506031540 | 9 | 0 | 0.0 | 3.2 | 0.00 | 0.03 | 0.00 | 94 | 1016.4 |
| 20260506031032 | 9 | 14 | 0.0 | 0.0 | 0.00 | 0.03 | 0.00 | 96 | 1016.6 |
| 20260506030049 | 9 | 14 | 0.0 | 0.0 | 0.00 | 0.03 | 0.00 | 96 | 1016.5 |
| 20260506030035 | 9 | 0 | 0.0 | 0.0 | 0.00 | 0.03 | 0.00 | 94 | 1016.3 |
| 20260506025018 | 9 | 14 | 0.0 | 0.0 | 0.00 | 0.03 | 0.00 | 96 | 1016.4 |
| 20260506024541 | 9 | 0 | 0.0 | 0.0 | 0.00 | 0.03 | 0.00 | 94 | 1016.2 |
| 20260506024028 | 10 | 14 | 0.0 | 0.0 | 0.00 | 0.03 | 0.00 | 95 | 1016.3 |
| 20260506023059 | 9 | 0 | 0.0 | 0.0 | 0.00 | 0.03 | 0.00 | 94 | 1016.1 |
| 20260506023035 | 10 | 14 | 0.0 | 0.0 | 0.00 | 0.03 | 0.00 | 95 | 1016.3 |
| 20260506022015 | 10 | 14 | 0.0 | 0.0 | 0.00 | 0.03 | 0.00 | 95 | 1016.3 |
| 20260506021536 | 10 | 0 | 0.0 | 3.2 | 0.00 | 0.03 | 0.00 | 93 | 1015.9 |
| 20260506021025 | 10 | 14 | 0.0 | 3.2 | 0.00 | 0.03 | 0.00 | 95 | 1016.2 |
| 20260506020038 | 10 | 14 | 0.0 | 3.2 | 0.00 | 0.03 | 0.00 | 94 | 1016.1 |
| 20260506020036 | 10 | 0 | 0.0 | 3.2 | 0.00 | 0.03 | 0.00 | 93 | 1015.9 |
| 20260506015057 | 10 | 14 | 0.0 | 0.0 | 0.00 | 0.03 | 0.00 | 95 | 1016.0 |
| 20260506014536 | 10 | 0 | 0.0 | 4.8 | 0.00 | 0.03 | 0.00 | 93 | 1015.8 |
| 20260506014018 | 10 | 14 | 0.0 | 4.8 | 0.00 | 0.03 | 0.00 | 95 | 1016.1 |
| 20260506013041 | 10 | 0 | 0.0 | 4.8 | 0.00 | 0.03 | 0.00 | 93 | 1015.8 |
| 20260506013024 | 10 | 14 | 0.0 | 4.8 | 0.00 | 0.03 | 0.00 | 94 | 1016.1 |
| 20260506012032 | 10 | 14 | 0.0 | 4.8 | 0.00 | 0.03 | 0.00 | 94 | 1016.2 |
| 20260506011532 | 10 | 0 | 0.0 | 4.8 | 0.00 | 0.03 | 0.00 | 92 | 1015.8 |
| 20260506011019 | 10 | 30 | 0.0 | 0.0 | 0.00 | 0.03 | 0.00 | 93 | 1016.1 |
| 20260506010042 | 10 | 0 | 0.0 | 4.8 | 0.00 | 0.03 | 0.00 | 92 | 1015.9 |
| 20260506010032 | 10 | 30 | 0.0 | 4.8 | 0.00 | 0.03 | 0.00 | 94 | 1016.0 |
| 20260506005026 | 10 | 28 | 0.0 | 3.2 | 0.00 | 0.03 | 0.00 | 94 | 1016.0 |
| 20260506004557 | 10 | 0 | 0.0 | 3.2 | 0.00 | 0.03 | 0.00 | 91 | 1015.7 |
| 20260506004033 | 10 | 28 | 0.0 | 0.0 | 0.00 | 0.03 | 0.00 | 94 | 1015.9 |
| 20260506003045 | 10 | 0 | 0.0 | 1.6 | 0.00 | 0.03 | 0.00 | 91 | 1015.7 |
| 20260506003017 | 10 | 28 | 0.0 | 1.6 | 0.00 | 0.03 | 0.00 | 93 | 1015.9 |
| 20260506002022 | 11 | 28 | 0.0 | 0.0 | 0.00 | 0.03 | 0.00 | 93 | 1015.7 |
| 20260506001541 | 10 | 0 | 0.0 | 3.2 | 0.00 | 0.03 | 0.00 | 91 | 1015.5 |
| 20260506001032 | 11 | 28 | 0.0 | 3.2 | 0.00 | 0.03 | 0.00 | 92 | 1015.9 |
| 20260506000040 | 11 | 0 | 0.0 | 6.4 | 0.00 | 0.03 | 0.00 | 90 | 1015.6 |
| 20260506000029 | 11 | 28 | 1.6 | 6.4 | 0.00 | 0.03 | 0.00 | 91 | 1015.8 |
| 20260505235022 | 11 | 271 | 0.0 | 4.8 | 0.00 | 0.03 | 0.00 | 91 | 1015.7 |
| 20260505234557 | 11 | 0 | 0.0 | 6.4 | 0.00 | 0.03 | 0.00 | 90 | 1015.6 |
| 20260505234029 | 11 | 308 | 0.0 | 6.4 | 0.00 | 0.03 | 0.00 | 90 | 1015.7 |
| 20260505233039 | 11 | 0 | 0.0 | 6.4 | 0.00 | 0.03 | 0.00 | 89 | 1015.6 |
| 20260505233015 | 12 | 320 | 0.0 | 6.4 | 0.00 | 0.03 | 0.00 | 90 | 1015.8 |
| 20260505232022 | 12 | 248 | 1.6 | 4.8 | 0.00 | 0.03 | 0.00 | 87 | 1015.7 |
| 20260505231537 | 12 | 0 | 0.0 | 0.0 | 0.00 | 0.03 | 0.00 | 88 | 1015.6 |
| 20260505231030 | 12 | 237 | 0.0 | 1.6 | 0.00 | 0.03 | 0.00 | 88 | 1015.8 |
| 20260505230049 | 12 | 237 | 1.6 | 4.8 | 0.00 | 0.03 | 0.00 | 89 | 1015.7 |
| 20260505230041 | 12 | 237 | 0.0 | 4.8 | 0.00 | 0.03 | 0.00 | 87 | 1015.7 |
| 20260505225015 | 12 | 237 | 0.0 | 4.8 | 0.00 | 0.03 | 0.00 | 87 | 1015.8 |
| 20260505224539 | 12 | 237 | 0.0 | 12.9 | 0.00 | 0.03 | 0.00 | 86 | 1015.6 |
| 20260505224023 | 12 | 237 | 0.0 | 12.9 | 0.00 | 0.03 | 0.00 | 87 | 1015.9 |
| 20260505223039 | 12 | 260 | 0.0 | 4.8 | 0.00 | 0.03 | 0.00 | 86 | 1015.9 |
| 20260505223029 | 13 | 260 | 1.6 | 4.8 | 0.00 | 0.03 | 0.00 | 88 | 1015.9 |
| 20260505222013 | 13 | 250 | 0.0 | 8.0 | 0.00 | 0.03 | 0.00 | 88 | 1016.0 |
| 20260505221539 | 12 | 250 | 1.6 | 6.4 | 0.00 | 0.03 | 0.00 | 87 | 1015.8 |
| 20260505221018 | 12 | 292 | 0.0 | 4.8 | 0.00 | 0.03 | 0.00 | 88 | 1016.1 |
| 20260505220056 | 13 | 295 | 0.0 | 8.0 | 0.00 | 0.03 | 0.00 | 87 | 1016.2 |
| 20260505220054 | 13 | 0 | 0.0 | 9.7 | 0.00 | 0.03 | 0.00 | 85 | 1016.0 |
| 20260505215022 | 13 | 271 | 0.0 | 4.8 | 0.00 | 0.03 | 0.00 | 86 | 1016.2 |
| 20260505214540 | 12 | 271 | 0.0 | 4.8 | 0.00 | 0.03 | 0.00 | 86 | 1015.9 |
| 20260505214046 | 12 | 271 | 0.0 | 4.8 | 0.00 | 0.03 | 0.00 | 89 | 1016.0 |
| 20260505213052 | 12 | 268 | 0.0 | 6.4 | 0.00 | 0.03 | 0.00 | 88 | 1016.1 |
| 20260505213036 | 12 | 0 | 0.0 | 6.4 | 0.00 | 0.03 | 0.00 | 87 | 1015.9 |
| 20260505212055 | 12 | 254 | 0.0 | 0.0 | 0.00 | 0.03 | 0.00 | 88 | 1016.1 |
| 20260505211544 | 12 | 0 | 0.0 | 4.8 | 0.00 | 0.03 | 0.00 | 87 | 1015.8 |
| 20260505211020 | 12 | 231 | 1.6 | 4.8 | 0.00 | 0.03 | 0.00 | 90 | 1016.0 |
| 20260505210051 | 12 | 217 | 1.6 | 6.4 | 0.00 | 0.05 | 0.00 | 89 | 1016.1 |
| 20260505210039 | 12 | 0 | 0.0 | 6.4 | 0.00 | 0.03 | 0.00 | 88 | 1015.9 |
| 20260505205022 | 12 | 87 | 0.0 | 3.2 | 0.00 | 0.05 | 0.00 | 90 | 1016.0 |
| 20260505204539 | 12 | 0 | 0.0 | 3.2 | 0.00 | 0.08 | 0.00 | 89 | 1016.0 |
| 20260505204029 | 12 | 87 | 0.0 | 0.0 | 0.00 | 0.05 | 0.00 | 90 | 1016.1 |
| 20260505203037 | 12 | 0 | 0.0 | 0.0 | 0.00 | 0.08 | 0.00 | 87 | 1015.9 |
| 20260505203034 | 12 | 87 | 0.0 | 0.0 | 0.00 | 0.05 | 0.00 | 89 | 1016.2 |
| 20260505202018 | 12 | 87 | 0.0 | 0.0 | 0.00 | 0.05 | 0.00 | 90 | 1016.3 |
| 20260505201537 | 12 | 0 | 0.0 | 0.0 | 0.00 | 0.08 | 0.00 | 90 | 1016.1 |
| 20260505201025 | 12 | 87 | 0.0 | 1.6 | 0.00 | 0.05 | 0.00 | 89 | 1016.2 |
| 20260505200039 | 12 | 0 | 0.0 | 3.2 | 0.00 | 0.08 | 0.00 | 87 | 1016.1 |
| 20260505200035 | 12 | 87 | 0.0 | 3.2 | 0.00 | 0.13 | 0.00 | 88 | 1016.3 |
| 20260505195023 | 12 | 88 | 0.0 | 1.6 | 0.00 | 0.13 | 0.00 | 91 | 1016.2 |
| 20260505194544 | 12 | 0 | 0.0 | 0.0 | 0.00 | 0.13 | 0.00 | 89 | 1016.0 |
| 20260505194051 | 12 | 88 | 0.0 | 0.0 | 0.00 | 0.13 | 0.00 | 91 | 1016.2 |
| 20260505193044 | 11 | 0 | 0.0 | 1.6 | 0.00 | 0.13 | 0.00 | 91 | 1016.0 |
| 20260505193030 | 11 | 355 | 0.0 | 1.6 | 0.00 | 0.13 | 0.00 | 92 | 1016.2 |
| 20260505192031 | 11 | 355 | 0.0 | 0.0 | 0.00 | 0.13 | 0.00 | 92 | 1016.3 |
| 20260505191550 | 11 | 0 | 0.0 | 4.8 | 0.00 | 0.13 | 0.00 | 91 | 1016.0 |
| 20260505191017 | 11 | 355 | 1.6 | 4.8 | 0.00 | 0.13 | 0.00 | 93 | 1016.2 |
| 20260505190240 | 11 | 355 | 0.0 | 1.6 | 0.00 | 0.13 | 0.00 | 94 | 1016.1 |
| 20260505190040 | 10 | 0 | 0.0 | 3.2 | 0.00 | 0.13 | 0.00 | 91 | 1015.9 |
| 20260505190035 | 10 | 355 | 0.0 | 3.2 | 0.00 | 0.13 | 0.00 | 92 | 1016.1 |
| 20260505185023 | 11 | 355 | 0.0 | 0.0 | 0.00 | 0.13 | 0.00 | 94 | 1016.0 |
| 20260505184543 | 10 | 0 | 0.0 | 1.6 | 0.00 | 0.13 | 0.00 | 92 | 1015.9 |
| 20260505184028 | 10 | 269 | 0.0 | 1.6 | 0.00 | 0.13 | 0.00 | 93 | 1016.0 |
| 20260505183038 | 10 | 0 | 0.0 | 4.8 | 0.00 | 0.13 | 0.00 | 93 | 1015.8 |
| 20260505183027 | 11 | 269 | 0.0 | 3.2 | 0.00 | 0.13 | 0.00 | 95 | 1016.0 |
| 20260505182021 | 10 | 269 | 0.0 | 3.2 | 0.00 | 0.13 | 0.00 | 95 | 1015.9 |
| 20260505181538 | 10 | 0 | 0.0 | 0.0 | 0.00 | 0.13 | 0.00 | 94 | 1015.7 |
| 20260505181025 | 10 | 268 | 0.0 | 0.0 | 0.00 | 0.13 | 0.00 | 95 | 1015.8 |
| 20260505180047 | 10 | 0 | 0.0 | 3.2 | 0.00 | 0.13 | 0.00 | 94 | 1015.7 |
| 20260505180043 | 10 | 268 | 0.0 | 0.0 | 0.00 | 0.13 | 0.00 | 95 | 1015.8 |
| 20260505175029 | 10 | 5 | 0.0 | 3.2 | 0.00 | 0.13 | 0.00 | 95 | 1015.7 |
| 20260505174544 | 10 | 0 | 0.0 | 0.0 | 0.00 | 0.13 | 0.00 | 94 | 1015.4 |
| 20260505174015 | 10 | 5 | 0.0 | 0.0 | 0.00 | 0.13 | 0.00 | 95 | 1015.6 |
| 20260505173036 | 10 | 0 | 0.0 | 3.2 | 0.00 | 0.13 | 0.00 | 95 | 1015.3 |
| 20260505173016 | 10 | 5 | 0.0 | 3.2 | 0.00 | 0.13 | 0.00 | 96 | 1015.6 |
| 20260505172039 | 10 | 5 | 0.0 | 0.0 | 0.00 | 0.13 | 0.00 | 97 | 1015.5 |
| 20260505171534 | 10 | 0 | 0.0 | 3.2 | 0.00 | 0.13 | 0.00 | 95 | 1015.3 |
| 20260505171018 | 10 | 5 | 0.0 | 3.2 | 0.00 | 0.13 | 0.00 | 97 | 1015.5 |
| 20260505170048 | 9 | 5 | 1.6 | 6.4 | 0.00 | 0.13 | 0.00 | 96 | 1015.3 |
| 20260505170031 | 10 | 5 | 1.6 | 6.4 | 0.00 | 0.13 | 0.00 | 97 | 1015.6 |
| 20260505165019 | 10 | 360 | 1.6 | 4.8 | 0.00 | 0.13 | 0.00 | 98 | 1015.5 |
| 20260505164540 | 9 | 0 | 1.6 | 4.8 | 0.00 | 0.13 | 0.00 | 96 | 1015.3 |
| 20260505164027 | 10 | 338 | 0.0 | 3.2 | 0.00 | 0.13 | 0.00 | 98 | 1015.4 |
| 20260505163039 | 9 | 0 | 1.6 | 4.8 | 0.00 | 0.13 | 0.00 | 97 | 1015.0 |
| 20260505163033 | 10 | 335 | 1.6 | 4.8 | 0.00 | 0.13 | 0.00 | 98 | 1015.3 |
| 20260505162036 | 9 | 336 | 0.0 | 4.8 | 0.00 | 0.13 | 0.00 | 98 | 1015.2 |
| 20260505161535 | 8 | 0 | 0.0 | 3.2 | 0.00 | 0.13 | 0.00 | 96 | 1015.0 |
| 20260505161017 | 9 | 335 | 0.0 | 4.8 | 0.00 | 0.13 | 0.00 | 98 | 1015.2 |
| 20260505153051 | 8 | 0 | 0.0 | 3.2 | 0.00 | 0.13 | 0.00 | 97 | 1014.7 |
| 20260505153013 | 8 | 285 | 0.0 | 3.2 | 0.00 | 0.13 | 0.00 | 98 | 1015.1 |
| 20260505152017 | 8 | 298 | 0.0 | 3.2 | 0.00 | 0.13 | 0.00 | 98 | 1015.1 |
| 20260505151545 | 8 | 0 | 0.0 | 3.2 | 0.00 | 0.13 | 0.00 | 97 | 1014.7 |
| 20260505151024 | 8 | 298 | 0.0 | 3.2 | 0.00 | 0.13 | 0.00 | 98 | 1015.0 |
| 20260505125028 | 8 | 69 | 0.0 | 4.8 | 0.00 | 0.13 | 0.00 | 98 | 1014.6 |
| 20260505124535 | 7 | 0 | 0.0 | 4.8 | 0.00 | 0.13 | 0.00 | 96 | 1014.0 |
| 20260505124035 | 8 | 38 | 0.0 | 0.0 | 0.00 | 0.13 | 0.00 | 98 | 1014.4 |
| 20260505123058 | 7 | 0 | 0.0 | 3.2 | 0.00 | 0.13 | 0.00 | 96 | 1014.0 |
| 20260505123015 | 8 | 38 | 0.0 | 3.2 | 0.00 | 0.13 | 0.00 | 98 | 1014.5 |
| 20260505122039 | 8 | 38 | 0.0 | 0.0 | 0.00 | 0.13 | 0.00 | 98 | 1014.5 |
| 20260505121536 | 7 | 0 | 0.0 | 0.0 | 0.00 | 0.13 | 0.00 | 96 | 1013.9 |
| 20260505121021 | 8 | 38 | 0.0 | 0.0 | 0.00 | 0.13 | 0.00 | 98 | 1014.3 |
| 20260505120042 | 7 | 0 | 0.0 | 1.6 | 0.00 | 0.13 | 0.00 | 96 | 1013.9 |
| 20260505120033 | 8 | 38 | 0.0 | 1.6 | 0.00 | 0.13 | 0.00 | 98 | 1014.3 |
| 20260505115046 | 8 | 38 | 0.0 | 3.2 | 0.00 | 0.13 | 0.00 | 98 | 1014.3 |
| 20260505114556 | 7 | 0 | 0.0 | 3.2 | 0.00 | 0.13 | 0.00 | 96 | 1013.7 |
| 20260505114038 | 8 | 38 | 1.6 | 3.2 | 0.00 | 0.13 | 0.00 | 98 | 1014.3 |
| 20260505113040 | 7 | 0 | 0.0 | 0.0 | 0.00 | 0.13 | 0.00 | 96 | 1013.9 |
| 20260505113018 | 8 | 38 | 0.0 | 0.0 | 0.00 | 0.13 | 0.00 | 98 | 1014.4 |
| 20260505112026 | 8 | 38 | 0.0 | 0.0 | 0.00 | 0.13 | 0.00 | 98 | 1014.5 |
| 20260505111604 | 7 | 0 | 0.0 | 0.0 | 0.00 | 0.13 | 0.00 | 96 | 1013.9 |
| 20260505111035 | 8 | 38 | 0.0 | 0.0 | 0.00 | 0.13 | 0.00 | 98 | 1014.5 |